Homerville, Ohio
Current Conditions -  °F | °C
As of 11:56 PM on Wednesday 22 Oct 2014 (Local Time) from KBJJ Reporting Station
Broken Clouds Broken Clouds  
Wind Chill:   Ceiling: 4100
Heat Index:   Visibility: 10mi
Dew Point:   Wind: 8mph
Humidity: 86%   Direction: 320°NW
Pressure: 30.23"   Gusts: NA
Location:  41.03°N, 82.13°W
Report Text: KBJJ 230356Z AUTO 32007KT 10SM BKN041 08/06 A3023 RMK AO2 SLP240 T00830061 TSNO
Loading
Personal Weather Stations






























Interactive Weather Map
Tropical Storm Tracking
New forecast layout! Learn more

10-Day Weather Forecast

Advertisements
Track Severe Weather on mobile